Time;durP1;ratioP1;P1;durP2;ratioP2;P2;SDS_P1;SDS_P2;PMS_P1;PMS_P2;Temp;Humidity;BMP_temperature;BMP_pressure;BME280_temperature;BME280_humidity;BME280_pressure;Samples;Min_cycle;Max_cycle;Signal;HPM_P1;HPM_P2
2022/03/23 00:02:15;;;;;;;16.40;8.23;;;;;;;;;;5070665;28;20079;-73
2022/03/23 00:04:41;;;;;;;14.73;8.25;;;;;;;;;;5070150;28;20027;-73
2022/03/23 00:07:07;;;;;;;15.75;7.93;;;;;;;;;;5062677;28;20052;-74
2022/03/23 00:09:33;;;;;;;20.00;8.48;;;;;;;;;;5063341;28;20029;-73
2022/03/23 00:11:59;;;;;;;14.13;8.00;;;;;;;;;;5070935;28;20047;-73
2022/03/23 00:14:26;;;;;;;19.23;8.75;;;;;;;;;;5069683;28;20032;-73
2022/03/23 00:16:52;;;;;;;20.13;8.95;;;;;;;;;;5070840;28;20064;-74
2022/03/23 00:19:18;;;;;;;15.70;7.75;;;;;;;;;;5066016;28;20016;-73
2022/03/23 00:21:44;;;;;;;17.70;9.23;;;;;;;;;;5065845;28;20372;-73
2022/03/23 00:24:10;;;;;;;15.75;8.57;;;;;;;;;;5056520;28;20025;-73
2022/03/23 00:26:36;;;;;;;17.00;8.73;;;;;;;;;;5070861;28;20984;-73
2022/03/23 00:29:03;;;;;;;17.17;9.02;;;;;;;;;;5070495;28;20020;-73
2022/03/23 00:31:30;;;;;;;13.35;7.93;;;;;;;;;;5067436;28;20116;-73
2022/03/23 00:33:56;;;;;;;16.25;8.63;;;;;;;;;;5066230;28;20047;-73
2022/03/23 00:36:23;;;;;;;16.13;8.43;;;;;;;;;;5067869;28;20075;-73
2022/03/23 00:38:50;;;;;;;14.80;8.25;;;;;;;;;;5059730;28;20024;-73
2022/03/23 00:41:16;;;;;;;16.58;7.63;;;;;;;;;;5070273;28;20418;-73
2022/03/23 00:43:43;;;;;;;18.77;9.90;;;;;;;;;;5068972;28;20099;-73
2022/03/23 00:46:09;;;;;;;14.90;7.70;;;;;;;;;;5069875;28;20028;-73
2022/03/23 00:48:35;;;;;;;14.57;8.23;;;;;;;;;;5064413;28;20124;-73
2022/03/23 00:51:01;;;;;;;17.80;8.75;;;;;;;;;;5055214;28;20547;-74
2022/03/23 00:53:27;;;;;;;16.85;8.57;;;;;;;;;;5061334;28;20040;-74
2022/03/23 00:55:53;;;;;;;12.77;7.65;;;;;;;;;;5064020;28;20384;-73
2022/03/23 00:58:19;;;;;;;15.05;7.88;;;;;;;;;;5049837;28;20758;-73
2022/03/23 01:00:45;;;;;;;13.93;8.43;;;;;;;;;;5069167;28;20102;-74
2022/03/23 01:03:11;;;;;;;14.18;7.97;;;;;;;;;;5069585;28;20029;-73
2022/03/23 01:05:37;;;;;;;17.90;9.38;;;;;;;;;;5069445;28;20039;-73
2022/03/23 01:08:04;;;;;;;12.50;7.38;;;;;;;;;;5069123;28;20037;-73
2022/03/23 01:10:30;;;;;;;15.65;8.20;;;;;;;;;;5062054;28;20037;-73
2022/03/23 01:12:56;;;;;;;13.63;7.90;;;;;;;;;;5049628;28;20036;-73
2022/03/23 01:15:22;;;;;;;14.93;7.85;;;;;;;;;;5066736;28;20074;-73
2022/03/23 01:17:49;;;;;;;17.88;8.52;;;;;;;;;;5049795;28;20154;-73
2022/03/23 01:20:16;;;;;;;17.83;8.82;;;;;;;;;;5049452;28;20037;-73
2022/03/23 01:22:43;;;;;;;25.02;12.25;;;;;;;;;;5060886;28;20362;-73
2022/03/23 01:25:09;;;;;;;63.97;29.55;;;;;;;;;;5057044;28;20138;-73
2022/03/23 01:27:37;;;;;;;61.55;29.52;;;;;;;;;;5058249;28;20060;-74
2022/03/23 01:30:05;;;;;;;45.10;23.40;;;;;;;;;;5065299;28;20024;-73
2022/03/23 01:32:31;;;;;;;34.53;18.35;;;;;;;;;;5056223;28;20086;-74
2022/03/23 01:34:57;;;;;;;25.40;11.50;;;;;;;;;;5069250;28;20104;-73
2022/03/23 01:37:23;;;;;;;19.30;10.13;;;;;;;;;;5068140;28;20041;-73
2022/03/23 01:39:49;;;;;;;22.83;11.70;;;;;;;;;;5069236;28;20371;-73
2022/03/23 01:42:15;;;;;;;21.95;11.65;;;;;;;;;;5062365;28;20053;-73
2022/03/23 01:44:41;;;;;;;21.95;11.38;;;;;;;;;;5060230;28;20040;-73
2022/03/23 01:47:12;;;;;;;28.40;14.13;;;;;;;;;;5052624;28;20041;-73
2022/03/23 01:49:39;;;;;;;26.30;13.02;;;;;;;;;;5048631;28;20574;-73
2022/03/23 01:52:07;;;;;;;25.85;13.27;;;;;;;;;;5048695;28;20047;-73
2022/03/23 01:54:34;;;;;;;31.50;13.43;;;;;;;;;;5055786;28;20557;-73
2022/03/23 01:57:01;;;;;;;24.65;13.38;;;;;;;;;;5058107;28;20068;-73
2022/03/23 01:59:27;;;;;;;30.25;17.17;;;;;;;;;;5065084;28;20035;-73
2022/03/23 02:01:53;;;;;;;32.22;16.08;;;;;;;;;;5057154;28;20032;-73
2022/03/23 02:04:19;;;;;;;20.48;13.05;;;;;;;;;;5051240;28;20384;-73
2022/03/23 02:06:48;;;;;;;21.50;11.18;;;;;;;;;;5048991;28;20040;-73
2022/03/23 02:09:14;;;;;;;17.13;9.70;;;;;;;;;;5055877;28;20060;-73
2022/03/23 02:11:41;;;;;;;19.30;9.95;;;;;;;;;;5066924;28;20036;-73
2022/03/23 02:14:08;;;;;;;18.55;8.80;;;;;;;;;;5067878;28;20101;-73
2022/03/23 02:16:44;;;;;;;21.80;10.15;;;;;;;;;;5068481;28;20040;-73
2022/03/23 02:19:13;;;;;;;17.60;8.70;;;;;;;;;;5068665;28;20033;-73
2022/03/23 02:21:43;;;;;;;17.15;10.35;;;;;;;;;;5068608;28;20380;-74
2022/03/23 02:24:09;;;;;;;18.17;10.45;;;;;;;;;;5057417;28;20103;-73
2022/03/23 02:26:37;;;;;;;18.50;10.63;;;;;;;;;;5068559;28;20040;-73
2022/03/23 02:29:04;;;;;;;18.75;10.98;;;;;;;;;;5068736;28;20356;-73
2022/03/23 02:31:30;;;;;;;18.88;10.23;;;;;;;;;;5068266;28;20112;-75
2022/03/23 02:33:56;;;;;;;18.35;10.55;;;;;;;;;;5068428;28;20036;-72
2022/03/23 02:36:22;;;;;;;15.68;10.18;;;;;;;;;;5067292;28;20043;-73
2022/03/23 02:38:48;;;;;;;15.80;8.75;;;;;;;;;;5064980;28;20651;-75
2022/03/23 02:41:15;;;;;;;15.68;9.13;;;;;;;;;;5068123;28;20171;-72
2022/03/23 02:43:41;;;;;;;19.58;9.48;;;;;;;;;;5066535;28;20048;-73
2022/03/23 02:46:11;;;;;;;16.15;9.38;;;;;;;;;;5059959;28;20099;-73
2022/03/23 02:48:37;;;;;;;18.05;9.40;;;;;;;;;;5064898;28;20029;-73
2022/03/23 02:51:03;;;;;;;15.70;8.60;;;;;;;;;;5065906;28;20032;-75
2022/03/23 03:02:21;;;;;;;22.13;11.38;;;;;;;;;;5066850;28;20102;-75
2022/03/23 03:04:48;;;;;;;19.45;8.82;;;;;;;;;;5063279;28;20029;-74
2022/03/23 03:07:14;;;;;;;17.77;8.88;;;;;;;;;;5071467;28;20700;-75
2022/03/23 03:09:40;;;;;;;16.67;8.88;;;;;;;;;;5068848;28;20539;-74
2022/03/23 03:12:07;;;;;;;17.48;10.57;;;;;;;;;;5060196;28;20088;-74
2022/03/23 03:14:33;;;;;;;19.55;9.85;;;;;;;;;;5051564;28;20092;-75
2022/03/23 03:16:59;;;;;;;18.27;9.65;;;;;;;;;;5062024;28;20387;-74
2022/03/23 03:19:25;;;;;;;19.40;9.48;;;;;;;;;;5062761;28;20480;-74
2022/03/23 03:21:52;;;;;;;19.58;9.80;;;;;;;;;;5052822;28;20044;-74
2022/03/23 03:24:20;;;;;;;14.50;9.38;;;;;;;;;;5051089;28;20050;-74
2022/03/23 03:26:47;;;;;;;19.13;9.73;;;;;;;;;;5052124;28;20029;-74
2022/03/23 03:29:13;;;;;;;19.48;10.23;;;;;;;;;;5066195;28;20094;-74
2022/03/23 03:31:39;;;;;;;17.42;10.27;;;;;;;;;;5058577;28;20103;-74
2022/03/23 03:34:05;;;;;;;20.40;10.98;;;;;;;;;;5060876;28;20032;-75
2022/03/23 03:36:31;;;;;;;18.02;9.90;;;;;;;;;;5059152;28;20780;-74
2022/03/23 03:38:57;;;;;;;18.80;11.07;;;;;;;;;;5051054;28;20102;-74
2022/03/23 03:41:23;;;;;;;17.67;9.07;;;;;;;;;;5061347;28;20383;-74
2022/03/23 03:43:49;;;;;;;16.75;9.70;;;;;;;;;;5058950;28;20049;-74
2022/03/23 03:46:16;;;;;;;18.70;10.48;;;;;;;;;;5063652;28;20033;-74
2022/03/23 03:48:42;;;;;;;21.55;11.90;;;;;;;;;;5062844;28;20047;-75
2022/03/23 03:51:08;;;;;;;23.35;12.43;;;;;;;;;;5067138;28;21309;-74
2022/03/23 03:53:35;;;;;;;21.55;11.25;;;;;;;;;;5070866;28;20025;-74
2022/03/23 03:56:01;;;;;;;25.42;15.43;;;;;;;;;;5066573;28;20039;-74
2022/03/23 03:58:28;;;;;;;28.58;18.88;;;;;;;;;;5070285;28;20912;-74
2022/03/23 04:00:54;;;;;;;30.38;19.00;;;;;;;;;;5070343;28;20376;-74
2022/03/23 04:03:20;;;;;;;26.48;14.98;;;;;;;;;;5069733;28;20458;-74
2022/03/23 04:05:46;;;;;;;22.30;12.77;;;;;;;;;;5070493;28;20115;-74
2022/03/23 04:08:12;;;;;;;20.95;12.30;;;;;;;;;;5057221;28;20040;-74
2022/03/23 04:10:39;;;;;;;24.58;12.88;;;;;;;;;;5070385;28;20352;-74
2022/03/23 04:13:07;;;;;;;24.92;13.20;;;;;;;;;;5068385;28;20033;-74
2022/03/23 04:15:34;;;;;;;24.60;11.75;;;;;;;;;;5069807;28;20175;-74
2022/03/23 04:17:59;;;;;;;19.40;11.52;;;;;;;;;;5067936;28;20039;-74
2022/03/23 04:20:26;;;;;;;17.75;10.55;;;;;;;;;;5069481;28;20032;-74
2022/03/23 04:22:52;;;;;;;28.10;11.73;;;;;;;;;;5065542;28;20037;-74
2022/03/23 04:25:18;;;;;;;26.35;11.38;;;;;;;;;;5067910;28;20036;-74
2022/03/23 04:27:48;;;;;;;22.98;12.77;;;;;;;;;;5069824;28;20044;-74
2022/03/23 04:30:15;;;;;;;24.95;11.88;;;;;;;;;;5070031;28;20052;-74
2022/03/23 04:32:41;;;;;;;21.17;12.80;;;;;;;;;;5055007;28;20103;-74
2022/03/23 04:35:08;;;;;;;26.35;13.27;;;;;;;;;;5050076;28;20033;-74
2022/03/23 04:37:34;;;;;;;25.42;11.55;;;;;;;;;;5053704;28;20044;-74
2022/03/23 04:40:00;;;;;;;23.52;11.77;;;;;;;;;;5064020;28;20033;-75
2022/03/23 04:42:26;;;;;;;20.63;12.48;;;;;;;;;;5049717;28;20399;-74
2022/03/23 04:44:52;;;;;;;21.92;12.32;;;;;;;;;;5058460;28;20021;-74
2022/03/23 04:47:18;;;;;;;26.60;12.75;;;;;;;;;;5058390;28;20043;-74
2022/03/23 04:49:44;;;;;;;22.73;13.68;;;;;;;;;;5069363;28;20074;-74
2022/03/23 04:52:11;;;;;;;23.10;12.32;;;;;;;;;;5069622;28;20044;-74
2022/03/23 04:54:37;;;;;;;24.00;12.70;;;;;;;;;;5061439;28;20024;-74
2022/03/23 04:57:04;;;;;;;18.20;10.70;;;;;;;;;;5056111;28;20067;-74
2022/03/23 04:59:30;;;;;;;22.15;11.43;;;;;;;;;;5067715;28;20032;-74
2022/03/23 05:01:55;;;;;;;28.13;11.85;;;;;;;;;;5052301;28;20037;-73
2022/03/23 05:04:21;;;;;;;23.77;11.00;;;;;;;;;;5067308;28;20414;-74
2022/03/23 05:06:47;;;;;;;22.33;9.70;;;;;;;;;;5065729;28;20068;-74
2022/03/23 05:09:13;;;;;;;25.15;11.45;;;;;;;;;;5065960;28;20376;-75
2022/03/23 05:11:39;;;;;;;21.40;11.10;;;;;;;;;;5064586;28;20039;-74
2022/03/23 05:14:05;;;;;;;21.35;11.43;;;;;;;;;;5060776;28;20033;-74
2022/03/23 05:16:31;;;;;;;21.08;10.52;;;;;;;;;;5056685;28;20068;-74
2022/03/23 05:18:57;;;;;;;24.05;10.82;;;;;;;;;;5059114;28;20067;-74
2022/03/23 05:21:23;;;;;;;21.50;10.98;;;;;;;;;;5061734;28;20383;-74
2022/03/23 05:23:49;;;;;;;17.80;10.63;;;;;;;;;;5065410;28;20020;-74
2022/03/23 05:26:16;;;;;;;20.50;12.32;;;;;;;;;;5067587;28;20039;-74
2022/03/23 05:28:42;;;;;;;20.02;11.05;;;;;;;;;;5066120;28;20028;-74
2022/03/23 05:31:08;;;;;;;22.75;9.98;;;;;;;;;;5060678;28;20079;-74
2022/03/23 05:33:34;;;;;;;28.98;12.32;;;;;;;;;;5063385;28;20460;-74
2022/03/23 05:36:00;;;;;;;18.73;11.02;;;;;;;;;;5054626;28;20033;-74
2022/03/23 05:38:26;;;;;;;22.20;10.82;;;;;;;;;;5061656;28;20119;-74
2022/03/23 05:40:52;;;;;;;29.25;12.57;;;;;;;;;;5059062;28;20102;-74
2022/03/23 05:43:19;;;;;;;23.73;11.40;;;;;;;;;;5057782;28;20048;-74
2022/03/23 05:45:45;;;;;;;22.77;12.23;;;;;;;;;;5053754;28;20029;-74
2022/03/23 05:48:11;;;;;;;24.15;13.10;;;;;;;;;;5069421;28;20067;-74
2022/03/23 05:50:38;;;;;;;30.20;13.45;;;;;;;;;;5068585;28;20024;-74
2022/03/23 05:53:04;;;;;;;23.83;11.40;;;;;;;;;;5069282;28;20098;-74
2022/03/23 05:55:30;;;;;;;31.05;13.00;;;;;;;;;;5068308;28;21038;-74
2022/03/23 05:57:56;;;;;;;26.73;12.77;;;;;;;;;;5068935;28;20037;-74
2022/03/23 06:00:22;;;;;;;25.30;12.45;;;;;;;;;;5066850;28;20032;-74
2022/03/23 06:02:49;;;;;;;26.27;12.02;;;;;;;;;;5063047;28;20525;-74
2022/03/23 06:05:15;;;;;;;27.27;11.70;;;;;;;;;;5067726;28;20044;-74
2022/03/23 06:07:41;;;;;;;22.15;10.80;;;;;;;;;;5068826;28;20094;-74
2022/03/23 06:10:07;;;;;;;30.20;14.65;;;;;;;;;;5057702;28;20033;-74
2022/03/23 06:12:33;;;;;;;24.70;13.13;;;;;;;;;;5068179;28;20043;-75
2022/03/23 06:14:59;;;;;;;30.88;14.90;;;;;;;;;;5067733;28;20649;-74
2022/03/23 06:17:25;;;;;;;31.75;15.30;;;;;;;;;;5061626;28;20067;-74
2022/03/23 06:19:51;;;;;;;29.67;15.00;;;;;;;;;;5062618;28;20029;-74
2022/03/23 06:22:18;;;;;;;27.83;13.98;;;;;;;;;;5061747;28;20035;-74
2022/03/23 06:24:44;;;;;;;28.08;12.93;;;;;;;;;;5068455;28;20039;-74
2022/03/23 06:27:10;;;;;;;26.83;11.60;;;;;;;;;;5058896;28;20037;-74
2022/03/23 06:29:37;;;;;;;23.40;11.38;;;;;;;;;;5051932;28;20033;-74
2022/03/23 06:32:03;;;;;;;27.70;12.63;;;;;;;;;;5061429;28;20526;-74
2022/03/23 06:34:29;;;;;;;24.00;11.80;;;;;;;;;;5072002;28;20752;-74
2022/03/23 06:36:55;;;;;;;29.10;14.57;;;;;;;;;;5065440;28;20070;-73
2022/03/23 06:39:21;;;;;;;26.85;12.88;;;;;;;;;;5083345;28;20107;-74
2022/03/23 06:41:47;;;;;;;25.52;10.95;;;;;;;;;;5068126;28;20116;-74
2022/03/23 06:44:15;;;;;;;39.25;13.60;;;;;;;;;;5078543;28;20403;-74
2022/03/23 06:46:42;;;;;;;28.98;12.10;;;;;;;;;;5080833;28;20036;-74
2022/03/23 06:49:08;;;;;;;27.45;12.48;;;;;;;;;;5066419;28;20037;-74
2022/03/23 06:51:34;;;;;;;27.38;11.80;;;;;;;;;;5070870;28;20036;-74
2022/03/23 06:54:00;;;;;;;27.48;12.98;;;;;;;;;;5056713;28;20384;-74
2022/03/23 06:56:26;;;;;;;31.40;12.82;;;;;;;;;;5061834;28;20043;-74
2022/03/23 06:58:52;;;;;;;25.48;13.95;;;;;;;;;;5074151;28;20546;-75
2022/03/23 07:01:18;;;;;;;29.08;13.75;;;;;;;;;;5077645;28;20070;-74
2022/03/23 07:03:44;;;;;;;28.35;13.85;;;;;;;;;;5079902;28;20059;-74
2022/03/23 07:06:10;;;;;;;26.25;13.23;;;;;;;;;;5075281;28;20051;-74
2022/03/23 07:11:21;;;;;;;25.13;12.82;;;;;;;;;;5051993;28;20039;-74
2022/03/23 07:13:47;;;;;;;21.02;12.32;;;;;;;;;;5061043;28;20594;-74
2022/03/23 07:16:13;;;;;;;26.30;14.05;;;;;;;;;;5062572;28;20067;-74
2022/03/23 07:18:39;;;;;;;29.33;13.35;;;;;;;;;;5069886;28;20036;-74
2022/03/23 07:21:05;;;;;;;24.67;13.05;;;;;;;;;;5051396;28;20053;-74
2022/03/23 07:23:31;;;;;;;29.55;13.05;;;;;;;;;;5064850;28;20032;-74
2022/03/23 07:25:57;;;;;;;26.13;12.63;;;;;;;;;;5070592;28;20020;-74
2022/03/23 07:28:23;;;;;;;35.17;15.27;;;;;;;;;;5078448;28;20046;-75
2022/03/23 07:30:50;;;;;;;21.95;12.23;;;;;;;;;;5076877;28;20470;-74
2022/03/23 07:33:16;;;;;;;19.55;11.43;;;;;;;;;;5062553;28;20048;-74
2022/03/23 07:35:42;;;;;;;20.63;11.55;;;;;;;;;;5065120;28;20525;-74
2022/03/23 07:38:08;;;;;;;15.10;9.02;;;;;;;;;;5068420;28;20041;-74
2022/03/23 07:40:36;;;;;;;18.17;8.75;;;;;;;;;;5058620;28;20459;-74
2022/03/23 07:43:02;;;;;;;22.80;11.95;;;;;;;;;;5075856;28;20071;-74
2022/03/23 07:45:28;;;;;;;28.65;11.95;;;;;;;;;;5065413;28;20051;-75
2022/03/23 07:47:54;;;;;;;20.50;11.50;;;;;;;;;;5077409;28;20044;-75
2022/03/23 07:50:20;;;;;;;23.08;11.93;;;;;;;;;;5076718;28;20032;-74
2022/03/23 07:52:46;;;;;;;21.35;10.85;;;;;;;;;;5078664;28;20041;-74
2022/03/23 07:55:12;;;;;;;21.42;10.35;;;;;;;;;;5056868;28;20033;-74
2022/03/23 07:57:38;;;;;;;16.67;9.48;;;;;;;;;;5071206;28;20091;-74
2022/03/23 08:00:05;;;;;;;23.52;11.48;;;;;;;;;;5058430;28;20025;-75
2022/03/23 08:02:31;;;;;;;17.70;9.95;;;;;;;;;;5067876;28;20086;-75
2022/03/23 08:04:59;;;;;;;21.02;9.52;;;;;;;;;;5072982;28;20028;-74
2022/03/23 08:07:25;;;;;;;19.83;10.52;;;;;;;;;;5070092;28;20352;-74
2022/03/23 08:09:51;;;;;;;18.08;9.05;;;;;;;;;;5061578;28;20039;-75
2022/03/23 08:12:17;;;;;;;17.27;7.78;;;;;;;;;;5062238;28;20348;-74
2022/03/23 08:14:46;;;;;;;15.05;7.22;;;;;;;;;;5054735;28;20044;-74
2022/03/23 08:17:12;;;;;;;13.98;8.02;;;;;;;;;;5058075;28;20040;-75
2022/03/23 08:19:39;;;;;;;14.32;6.85;;;;;;;;;;5067121;28;20036;-74
2022/03/23 08:22:05;;;;;;;15.82;7.28;;;;;;;;;;5070728;28;20111;-75
2022/03/23 08:24:31;;;;;;;13.20;6.85;;;;;;;;;;5055404;28;20112;-74
2022/03/23 08:26:58;;;;;;;12.50;7.07;;;;;;;;;;5068308;28;20032;-74
2022/03/23 08:29:24;;;;;;;15.75;7.30;;;;;;;;;;5075709;28;20028;-74
2022/03/23 08:31:51;;;;;;;14.00;7.13;;;;;;;;;;5072815;28;20028;-75
2022/03/23 08:34:18;;;;;;;11.45;6.80;;;;;;;;;;5076998;28;20043;-75
2022/03/23 08:36:44;;;;;;;16.63;8.05;;;;;;;;;;5074782;28;20028;-75
2022/03/23 08:39:10;;;;;;;12.30;7.45;;;;;;;;;;5086700;28;20077;-75
2022/03/23 08:41:36;;;;;;;15.70;8.45;;;;;;;;;;5065875;28;20033;-74
2022/03/23 08:44:02;;;;;;;18.60;7.68;;;;;;;;;;5066231;28;20434;-75
2022/03/23 08:46:28;;;;;;;14.95;7.43;;;;;;;;;;5059956;28;20033;-75
2022/03/23 08:48:54;;;;;;;17.95;7.45;;;;;;;;;;5068502;28;20037;-74
2022/03/23 08:51:20;;;;;;;17.38;7.38;;;;;;;;;;5067188;28;20062;-75
2022/03/23 08:53:46;;;;;;;15.27;8.27;;;;;;;;;;5059349;28;20037;-75
2022/03/23 08:56:13;;;;;;;18.98;7.47;;;;;;;;;;5050453;28;20032;-74
2022/03/23 08:58:39;;;;;;;14.07;7.05;;;;;;;;;;5053509;28;20028;-74
2022/03/23 09:01:06;;;;;;;15.65;6.88;;;;;;;;;;5058130;28;20123;-75
2022/03/23 09:03:32;;;;;;;11.00;6.38;;;;;;;;;;5069299;28;20476;-75
2022/03/23 09:05:58;;;;;;;12.32;6.28;;;;;;;;;;5075718;28;20024;-74
2022/03/23 09:08:25;;;;;;;14.35;6.28;;;;;;;;;;5072629;28;20072;-75
2022/03/23 09:10:51;;;;;;;18.27;5.95;;;;;;;;;;5071095;28;20028;-75
2022/03/23 09:13:18;;;;;;;11.85;5.72;;;;;;;;;;5063721;28;20358;-75
2022/03/23 09:15:44;;;;;;;15.38;6.60;;;;;;;;;;5067057;28;20036;-75
2022/03/23 09:18:10;;;;;;;11.35;6.30;;;;;;;;;;5084684;28;20032;-74
2022/03/23 09:20:37;;;;;;;18.15;6.70;;;;;;;;;;5075250;28;20039;-75
2022/03/23 09:23:03;;;;;;;12.35;6.18;;;;;;;;;;5073891;28;20024;-75
2022/03/23 09:25:29;;;;;;;15.88;6.30;;;;;;;;;;5059966;28;20029;-75
2022/03/23 09:27:56;;;;;;;13.00;6.00;;;;;;;;;;5070671;28;20051;-74
2022/03/23 09:30:22;;;;;;;13.55;6.03;;;;;;;;;;5053368;28;20033;-74
2022/03/23 09:32:48;;;;;;;17.33;5.97;;;;;;;;;;5062780;28;20044;-74
2022/03/23 09:35:15;;;;;;;14.98;6.65;;;;;;;;;;5064355;28;20433;-75
2022/03/23 09:37:47;;;;;;;17.55;6.93;;;;;;;;;;5069528;28;20486;-75
2022/03/23 09:40:24;;;;;;;12.80;6.30;;;;;;;;;;5063983;28;20029;-75
2022/03/23 09:42:51;;;;;;;11.57;6.38;;;;;;;;;;5065388;28;20048;-75
2022/03/23 09:46:00;;;;;;;16.67;6.72;;;;;;;;;;5082350;28;20466;-75
2022/03/23 09:48:11;;;;;;;14.80;6.40;;;;;;;;;;5056663;28;20032;-75
2022/03/23 09:50:39;;;;;;;14.35;6.55;;;;;;;;;;5056876;28;20041;-75
2022/03/23 09:53:05;;;;;;;14.85;7.00;;;;;;;;;;5066351;28;20116;-75
2022/03/23 09:55:31;;;;;;;20.08;7.90;;;;;;;;;;5060118;28;20543;-75
2022/03/23 09:57:58;;;;;;;12.45;6.68;;;;;;;;;;5068331;28;20064;-74
2022/03/23 10:00:28;;;;;;;13.20;6.38;;;;;;;;;;5083405;28;20024;-75
2022/03/23 10:03:12;;;;;;;14.85;6.60;;;;;;;;;;5076256;28;20035;-74
2022/03/23 10:05:54;;;;;;;14.90;5.63;;;;;;;;;;5068524;28;20021;-75
2022/03/23 10:08:35;;;;;;;10.43;5.90;;;;;;;;;;5060327;28;20036;-75
2022/03/23 10:11:20;;;;;;;13.93;5.80;;;;;;;;;;5061651;28;20027;-75
2022/03/23 10:14:04;;;;;;;13.70;6.05;;;;;;;;;;5079418;28;20093;-75
2022/03/23 10:16:45;;;;;;;11.30;6.25;;;;;;;;;;5052505;28;20033;-75
2022/03/23 10:19:13;;;;;;;9.50;5.28;;;;;;;;;;5072605;28;20052;-74
2022/03/23 10:21:39;;;;;;;13.63;6.40;;;;;;;;;;5078959;28;20028;-74
2022/03/23 10:24:05;;;;;;;14.63;6.35;;;;;;;;;;5076752;28;20028;-75
2022/03/23 10:26:32;;;;;;;14.10;6.07;;;;;;;;;;5062654;28;20108;-75
2022/03/23 10:28:59;;;;;;;15.07;5.95;;;;;;;;;;5062438;28;20032;-75
2022/03/23 10:31:26;;;;;;;11.95;6.25;;;;;;;;;;5062809;28;20037;-75
2022/03/23 10:33:58;;;;;;;16.88;7.13;;;;;;;;;;5059280;28;20037;-75
2022/03/23 10:36:27;;;;;;;15.30;7.03;;;;;;;;;;5066133;28;20040;-74
2022/03/23 10:39:04;;;;;;;12.02;6.80;;;;;;;;;;5054437;28;20040;-75
2022/03/23 10:41:30;;;;;;;12.52;6.47;;;;;;;;;;5063723;28;20032;-75
2022/03/23 10:43:56;;;;;;;16.23;6.38;;;;;;;;;;5073944;28;20207;-76
2022/03/23 10:46:22;;;;;;;13.75;7.43;;;;;;;;;;5071884;28;20136;-74
2022/03/23 10:48:59;;;;;;;17.38;6.35;;;;;;;;;;5078108;28;20032;-75
2022/03/23 10:51:29;;;;;;;15.07;7.45;;;;;;;;;;5054068;28;20033;-75
2022/03/23 10:53:55;;;;;;;12.15;6.15;;;;;;;;;;5070476;28;20033;-74
2022/03/23 10:56:37;;;;;;;14.00;6.75;;;;;;;;;;5087241;28;20016;-75
2022/03/23 10:59:22;;;;;;;12.45;6.72;;;;;;;;;;5077885;28;20036;-75
2022/03/23 11:02:10;;;;;;;17.50;7.30;;;;;;;;;;5070450;28;20033;-75
2022/03/23 11:04:50;;;;;;;15.90;7.13;;;;;;;;;;5067276;28;20495;-75
2022/03/23 11:07:23;;;;;;;11.52;6.95;;;;;;;;;;5060277;28;20064;-75
2022/03/23 11:18:06;;;;;;;18.75;6.70;;;;;;;;;;5065089;28;20088;-75
2022/03/23 11:20:43;;;;;;;13.73;6.38;;;;;;;;;;5070449;28;20110;-75
2022/03/23 11:23:18;;;;;;;12.90;6.95;;;;;;;;;;5056194;28;20443;-74
2022/03/23 11:25:51;;;;;;;11.27;6.85;;;;;;;;;;5055714;28;20053;-74
2022/03/23 11:28:18;;;;;;;14.43;6.93;;;;;;;;;;5071346;28;20043;-75
2022/03/23 11:30:45;;;;;;;13.13;6.65;;;;;;;;;;5075439;28;20658;-74
2022/03/23 11:33:12;;;;;;;12.18;6.53;;;;;;;;;;5086672;28;20504;-75
2022/03/23 11:35:47;;;;;;;20.55;8.07;;;;;;;;;;5076220;28;20032;-74
2022/03/23 11:38:14;;;;;;;15.65;6.43;;;;;;;;;;5072052;28;20032;-74
2022/03/23 11:40:44;;;;;;;13.98;6.20;;;;;;;;;;5082169;28;20380;-74
2022/03/23 11:43:11;;;;;;;12.50;6.72;;;;;;;;;;5064557;28;20099;-74
2022/03/23 11:45:41;;;;;;;13.63;7.32;;;;;;;;;;5074629;28;20028;-74
2022/03/23 11:48:13;;;;;;;14.70;8.10;;;;;;;;;;5055854;28;20032;-74
2022/03/23 11:50:49;;;;;;;17.95;7.78;;;;;;;;;;5070088;28;20037;-74
2022/03/23 11:53:36;;;;;;;15.93;6.72;;;;;;;;;;5068436;28;20028;-74
2022/03/23 11:56:02;;;;;;;12.50;6.90;;;;;;;;;;5068657;28;20035;-74
2022/03/23 11:58:37;;;;;;;14.30;6.75;;;;;;;;;;5071030;28;20035;-74
2022/03/23 12:01:13;;;;;;;15.20;7.72;;;;;;;;;;5077822;28;20040;-74
2022/03/23 12:03:45;;;;;;;15.40;7.82;;;;;;;;;;5067996;28;20091;-74
2022/03/23 12:06:12;;;;;;;;;;;;;;;;;;5057850;28;20029;-74
2022/03/23 12:08:49;;;;;;;15.57;7.38;;;;;;;;;;5058778;28;20488;-74
2022/03/23 12:11:34;;;;;;;15.80;7.63;;;;;;;;;;5069494;28;20081;-74
2022/03/23 12:14:04;;;;;;;13.80;7.20;;;;;;;;;;5090734;28;20162;-74
2022/03/23 12:16:49;;;;;;;18.52;7.68;;;;;;;;;;5069030;28;20479;-74
2022/03/23 12:19:28;;;;;;;13.90;7.13;;;;;;;;;;5058907;28;20167;-75
2022/03/23 12:21:59;;;;;;;15.30;7.57;;;;;;;;;;5052998;28;20062;-74
2022/03/23 12:24:44;;;;;;;15.00;7.80;;;;;;;;;;5052133;28;20031;-74
2022/03/23 12:27:27;;;;;;;12.95;7.80;;;;;;;;;;5053477;28;20529;-74
2022/03/23 12:29:53;;;;;;;18.45;7.85;;;;;;;;;;5069490;28;20044;-74
2022/03/23 12:32:20;;;;;;;19.20;7.72;;;;;;;;;;5075881;28;20051;-74
2022/03/23 12:34:52;;;;;;;19.08;7.80;;;;;;;;;;5068387;28;20116;-74
2022/03/23 12:37:19;;;;;;;16.58;8.40;;;;;;;;;;5051489;28;20033;-74
2022/03/23 12:39:53;;;;;;;16.98;7.63;;;;;;;;;;5056845;28;20033;-74
2022/03/23 12:42:22;;;;;;;19.20;8.90;;;;;;;;;;5060211;28;20068;-74
2022/03/23 12:44:57;;;;;;;16.85;8.07;;;;;;;;;;5076284;28;20039;-74
2022/03/23 12:47:28;;;;;;;14.40;8.07;;;;;;;;;;5060561;28;20399;-74
2022/03/23 12:58:15;;;;;;;11.77;6.97;;;;;;;;;;5056531;28;20063;-74
2022/03/23 13:00:45;;;;;;;13.73;6.90;;;;;;;;;;5059892;28;20468;-74
2022/03/23 13:03:11;;;;;;;12.43;6.43;;;;;;;;;;5054294;28;20032;-74
2022/03/23 13:05:57;;;;;;;15.70;6.45;;;;;;;;;;5066984;28;20069;-74
2022/03/23 13:08:38;;;;;;;11.38;6.90;;;;;;;;;;5054790;28;20115;-74
2022/03/23 13:11:05;;;;;;;15.82;6.22;;;;;;;;;;5067009;28;20178;-74
2022/03/23 13:13:32;;;;;;;12.77;6.72;;;;;;;;;;5069353;28;20029;-74
2022/03/23 13:16:01;;;;;;;11.73;5.53;;;;;;;;;;5076982;28;20079;-74
2022/03/23 13:18:28;;;;;;;11.60;6.25;;;;;;;;;;5061278;28;20048;-74
2022/03/23 13:20:56;;;;;;;13.25;6.32;;;;;;;;;;5063629;28;20395;-74
2022/03/23 13:23:22;;;;;;;13.57;6.30;;;;;;;;;;5060614;28;20032;-74
2022/03/23 13:26:00;;;;;;;22.48;6.97;;;;;;;;;;5070750;28;20040;-74
2022/03/23 13:28:26;;;;;;;8.98;5.70;;;;;;;;;;5061810;28;20044;-74
2022/03/23 13:30:58;;;;;;;10.30;5.63;;;;;;;;;;5064824;28;20141;-74
2022/03/23 13:33:24;;;;;;;12.47;5.87;;;;;;;;;;5063306;28;20383;-74
2022/03/23 13:35:51;;;;;;;9.68;6.03;;;;;;;;;;5066881;28;20410;-74
2022/03/23 13:38:17;;;;;;;12.10;6.20;;;;;;;;;;5071005;28;20040;-75
2022/03/23 13:43:32;;;;;;;12.02;5.60;;;;;;;;;;5063931;28;20063;-74
2022/03/23 13:45:59;;;;;;;10.18;4.38;;;;;;;;;;5067719;28;20028;-75
2022/03/23 13:48:31;;;;;;;10.30;5.20;;;;;;;;;;5066000;28;20041;-74
2022/03/23 13:50:57;;;;;;;12.90;5.75;;;;;;;;;;5058660;28;20025;-74
2022/03/23 13:53:23;;;;;;;10.45;4.97;;;;;;;;;;5072668;28;20598;-75
2022/03/23 13:55:51;;;;;;;10.23;6.32;;;;;;;;;;5069446;28;20128;-74
2022/03/23 13:58:17;;;;;;;13.70;4.93;;;;;;;;;;5074335;28;20047;-74
2022/03/23 14:00:50;;;;;;;10.23;5.03;;;;;;;;;;5067977;28;20483;-74
2022/03/23 14:03:20;;;;;;;11.77;5.40;;;;;;;;;;5049627;28;20103;-74
2022/03/23 14:06:02;;;;;;;12.93;6.18;;;;;;;;;;5072774;28;20835;-74
2022/03/23 14:08:28;;;;;;;13.32;5.97;;;;;;;;;;5068830;28;20063;-74
2022/03/23 14:10:54;;;;;;;16.25;5.55;;;;;;;;;;5058694;28;20369;-74
2022/03/23 14:13:20;;;;;;;13.98;5.82;;;;;;;;;;5074584;28;20778;-75
2022/03/23 14:15:50;;;;;;;10.88;5.85;;;;;;;;;;5065487;28;20860;-74
2022/03/23 14:18:16;;;;;;;14.45;6.00;;;;;;;;;;5063354;28;20067;-74
2022/03/23 14:20:52;;;;;;;9.60;5.15;;;;;;;;;;5059066;28;20114;-74
2022/03/23 14:23:19;;;;;;;11.20;6.38;;;;;;;;;;5070167;28;20060;-74
2022/03/23 14:25:50;;;;;;;15.60;6.85;;;;;;;;;;5079517;28;20021;-75
2022/03/23 14:28:20;;;;;;;14.57;5.97;;;;;;;;;;5066929;28;20048;-75
2022/03/23 14:30:55;;;;;;;11.35;5.30;;;;;;;;;;5077715;28;20118;-74
2022/03/23 14:33:22;;;;;;;13.02;5.93;;;;;;;;;;5062547;28;20041;-74
2022/03/23 14:35:48;;;;;;;9.95;5.72;;;;;;;;;;5078944;28;20029;-74
2022/03/23 14:38:15;;;;;;;10.75;6.55;;;;;;;;;;5072883;28;20048;-74
2022/03/23 14:40:49;;;;;;;12.73;5.90;;;;;;;;;;5058039;28;20099;-74
2022/03/23 14:43:34;;;;;;;16.10;6.18;;;;;;;;;;5069657;28;20098;-74
2022/03/23 14:46:20;;;;;;;10.80;5.88;;;;;;;;;;5077323;28;20024;-74
2022/03/23 14:48:46;;;;;;;10.63;5.43;;;;;;;;;;5056857;28;20040;-74
2022/03/23 14:51:12;;;;;;;11.13;6.20;;;;;;;;;;5065584;28;20775;-74
2022/03/23 14:53:38;;;;;;;11.65;6.60;;;;;;;;;;5067368;28;20720;-74
2022/03/23 14:56:05;;;;;;;17.58;5.85;;;;;;;;;;5068710;28;20032;-74
2022/03/23 14:58:34;;;;;;;13.30;6.20;;;;;;;;;;5055116;28;20036;-74
2022/03/23 15:01:05;;;;;;;10.32;5.90;;;;;;;;;;5062259;28;20029;-74
2022/03/23 15:03:32;;;;;;;11.57;5.55;;;;;;;;;;5061763;28;20052;-74